Main page
METAR-TAF:

METAR-TAF

Airports :

Carlisle, England

Carlisle Lake District Airport

latitude: 54-56-15N, longitude: 002-48-33W, elevation: 57 m

Current weather observation

The report was made 38 minutes ago, at 14:20 UTC
Wind 7 kt from the West/Southwest
Temperature 4°C
Humidity 87%
Pressure 1007 hPa
Visibility 10 km or more
Few clouds at a height of 900 ft
Scattered clouds at a height of 1800 ft, Towering cumulus.
showers in vicinity

METAR: EGNC 241420Z 24007KT 9999 VCSH FEW009 SCT018TCU 04/02 Q1007

Time: 14:58 (14:58 UTC)

Forecast

The report was made 55 minutes ago, at 14:03 UTC
Forecast valid from 24 at 15 UTC to 24 at 18 UTC
Wind 6 kt from the West/Southwest
Visibility 10 km or more
Scattered clouds at a height of 2000 ft
Probability 30% :
Temporary
from 24 at 15 UTC to 24 at 18 UTC
Visibility: 6000 m
Broken clouds at a height of 1100 ft
rain showers

TAF: EGNC 241403Z 2415/2418 24006KT 9999 SCT020 PROB30 TEMPO 2415/2418 6000 SHRA BKN011

Weather observations and forecasts of more than 4000 airports (METAR and TAF reports).

The available stations are represented by yellow and red dots on the map.

Hover mouse over dot to see the name of the station.

Then click to see weather observations and forecasts.

To change the map : click on the green buttons with a black cross to zoom in, on the green button with a dash to zoom out, or on the green arrows for adjacent maps.


METAR-TAF: